sensor_id;sensor_type;location;lat;lon;timestamp;temperature;humidity
63317;DHT22;49822;41.468;13.560;2023-06-05T00:01:57;20.20;95.90
63317;DHT22;49822;41.468;13.560;2023-06-05T00:04:23;20.20;95.60
63317;DHT22;49822;41.468;13.560;2023-06-05T00:06:49;20.30;95.60
63317;DHT22;49822;41.468;13.560;2023-06-05T00:09:19;20.10;96.30
63317;DHT22;49822;41.468;13.560;2023-06-05T00:11:45;19.80;97.60
63317;DHT22;49822;41.468;13.560;2023-06-05T00:14:11;19.60;98.40
63317;DHT22;49822;41.468;13.560;2023-06-05T00:16:38;19.60;98.00
63317;DHT22;49822;41.468;13.560;2023-06-05T00:19:04;19.80;97.70
63317;DHT22;49822;41.468;13.560;2023-06-05T00:21:30;19.80;97.20
63317;DHT22;49822;41.468;13.560;2023-06-05T00:23:56;19.90;96.90
63317;DHT22;49822;41.468;13.560;2023-06-05T00:26:22;19.90;96.60
63317;DHT22;49822;41.468;13.560;2023-06-05T00:28:51;20.00;96.40
63317;DHT22;49822;41.468;13.560;2023-06-05T00:31:17;19.90;96.20
63317;DHT22;49822;41.468;13.560;2023-06-05T00:33:44;20.10;95.90
63317;DHT22;49822;41.468;13.560;2023-06-05T00:36:11;20.00;95.70
63317;DHT22;49822;41.468;13.560;2023-06-05T00:38:37;20.00;95.80
63317;DHT22;49822;41.468;13.560;2023-06-05T00:41:03;20.10;95.80
63317;DHT22;49822;41.468;13.560;2023-06-05T00:43:29;20.10;95.90
63317;DHT22;49822;41.468;13.560;2023-06-05T00:46:02;20.00;95.50
63317;DHT22;49822;41.468;13.560;2023-06-05T00:48:32;20.10;95.50
63317;DHT22;49822;41.468;13.560;2023-06-05T00:50:59;20.00;95.70
63317;DHT22;49822;41.468;13.560;2023-06-05T00:53:26;20.00;95.60
63317;DHT22;49822;41.468;13.560;2023-06-05T00:55:52;20.10;95.40
63317;DHT22;49822;41.468;13.560;2023-06-05T00:58:19;20.00;96.00
63317;DHT22;49822;41.468;13.560;2023-06-05T01:00:45;20.00;95.80
63317;DHT22;49822;41.468;13.560;2023-06-05T01:03:15;20.00;95.90
63317;DHT22;49822;41.468;13.560;2023-06-05T01:05:43;20.10;95.70
63317;DHT22;49822;41.468;13.560;2023-06-05T01:08:09;20.10;95.70
63317;DHT22;49822;41.468;13.560;2023-06-05T01:10:38;20.10;95.50
63317;DHT22;49822;41.468;13.560;2023-06-05T01:13:23;20.00;95.40
63317;DHT22;49822;41.468;13.560;2023-06-05T01:15:51;20.00;95.80
63317;DHT22;49822;41.468;13.560;2023-06-05T01:18:21;20.00;95.30
63317;DHT22;49822;41.468;13.560;2023-06-05T01:20:49;20.00;95.60
63317;DHT22;49822;41.468;13.560;2023-06-05T01:23:16;20.00;95.30
63317;DHT22;49822;41.468;13.560;2023-06-05T01:25:42;20.00;95.30
63317;DHT22;49822;41.468;13.560;2023-06-05T01:28:23;20.00;95.60
63317;DHT22;49822;41.468;13.560;2023-06-05T01:30:56;20.10;95.50
63317;DHT22;49822;41.468;13.560;2023-06-05T01:33:30;20.00;95.50
63317;DHT22;49822;41.468;13.560;2023-06-05T01:36:02;20.10;95.40
63317;DHT22;49822;41.468;13.560;2023-06-05T01:38:33;20.00;95.50
63317;DHT22;49822;41.468;13.560;2023-06-05T01:41:03;20.00;95.40
63317;DHT22;49822;41.468;13.560;2023-06-05T01:43:31;20.00;95.30
63317;DHT22;49822;41.468;13.560;2023-06-05T01:45:59;20.00;94.90
63317;DHT22;49822;41.468;13.560;2023-06-05T01:48:26;19.80;95.50
63317;DHT22;49822;41.468;13.560;2023-06-05T01:50:59;19.60;95.90
63317;DHT22;49822;41.468;13.560;2023-06-05T01:53:29;19.70;96.00
63317;DHT22;49822;41.468;13.560;2023-06-05T01:55:56;19.70;96.10
63317;DHT22;49822;41.468;13.560;2023-06-05T01:58:26;19.70;95.60
63317;DHT22;49822;41.468;13.560;2023-06-05T02:00:53;19.70;95.40
63317;DHT22;49822;41.468;13.560;2023-06-05T02:03:20;19.70;95.20
63317;DHT22;49822;41.468;13.560;2023-06-05T02:05:46;19.80;95.00
63317;DHT22;49822;41.468;13.560;2023-06-05T02:08:12;19.70;95.00
63317;DHT22;49822;41.468;13.560;2023-06-05T02:10:42;19.70;95.20
63317;DHT22;49822;41.468;13.560;2023-06-05T02:13:10;19.60;94.90
63317;DHT22;49822;41.468;13.560;2023-06-05T02:15:37;19.50;95.10
63317;DHT22;49822;41.468;13.560;2023-06-05T02:18:05;19.50;94.30
63317;DHT22;49822;41.468;13.560;2023-06-05T02:20:34;19.50;95.00
63317;DHT22;49822;41.468;13.560;2023-06-05T02:23:02;19.60;95.30
63317;DHT22;49822;41.468;13.560;2023-06-05T02:25:30;19.60;94.60
63317;DHT22;49822;41.468;13.560;2023-06-05T02:27:57;19.60;94.50
63317;DHT22;49822;41.468;13.560;2023-06-05T02:30:25;19.40;95.30
63317;DHT22;49822;41.468;13.560;2023-06-05T02:32:52;19.50;95.10
63317;DHT22;49822;41.468;13.560;2023-06-05T02:35:26;19.50;95.20
63317;DHT22;49822;41.468;13.560;2023-06-05T02:37:52;19.60;95.10
63317;DHT22;49822;41.468;13.560;2023-06-05T02:40:19;19.50;95.10
63317;DHT22;49822;41.468;13.560;2023-06-05T02:42:46;19.50;95.10
63317;DHT22;49822;41.468;13.560;2023-06-05T02:45:12;19.60;95.10
63317;DHT22;49822;41.468;13.560;2023-06-05T02:47:39;19.50;95.00
63317;DHT22;49822;41.468;13.560;2023-06-05T02:50:07;19.60;95.10
63317;DHT22;49822;41.468;13.560;2023-06-05T02:52:36;19.60;94.90
63317;DHT22;49822;41.468;13.560;2023-06-05T02:55:11;19.60;94.60
63317;DHT22;49822;41.468;13.560;2023-06-05T02:57:39;19.50;95.10
63317;DHT22;49822;41.468;13.560;2023-06-05T03:00:12;19.40;95.30
63317;DHT22;49822;41.468;13.560;2023-06-05T03:02:46;19.40;95.40
63317;DHT22;49822;41.468;13.560;2023-06-05T03:05:16;19.40;95.30
63317;DHT22;49822;41.468;13.560;2023-06-05T03:07:44;19.40;95.20
63317;DHT22;49822;41.468;13.560;2023-06-05T03:10:11;19.50;94.80
63317;DHT22;49822;41.468;13.560;2023-06-05T03:12:57;19.30;94.80
63317;DHT22;49822;41.468;13.560;2023-06-05T03:15:33;19.40;94.70
63317;DHT22;49822;41.468;13.560;2023-06-05T03:18:01;19.50;94.80
63317;DHT22;49822;41.468;13.560;2023-06-05T03:20:28;19.40;94.80
63317;DHT22;49822;41.468;13.560;2023-06-05T03:22:54;19.50;94.60
63317;DHT22;49822;41.468;13.560;2023-06-05T03:25:23;19.40;94.40
63317;DHT22;49822;41.468;13.560;2023-06-05T03:27:53;19.40;94.60
63317;DHT22;49822;41.468;13.560;2023-06-05T03:30:23;19.40;94.70
63317;DHT22;49822;41.468;13.560;2023-06-05T03:32:54;19.20;95.00
63317;DHT22;49822;41.468;13.560;2023-06-05T03:35:21;19.00;95.30
63317;DHT22;49822;41.468;13.560;2023-06-05T03:37:47;18.90;95.80
63317;DHT22;49822;41.468;13.560;2023-06-05T03:40:13;18.90;96.00
63317;DHT22;49822;41.468;13.560;2023-06-05T03:42:39;18.90;95.80
63317;DHT22;49822;41.468;13.560;2023-06-05T03:45:06;19.00;96.10
63317;DHT22;49822;41.468;13.560;2023-06-05T03:47:32;19.00;96.10
63317;DHT22;49822;41.468;13.560;2023-06-05T03:50:00;19.10;95.90
63317;DHT22;49822;41.468;13.560;2023-06-05T03:52:29;19.20;95.90
63317;DHT22;49822;41.468;13.560;2023-06-05T03:54:55;19.20;95.80
63317;DHT22;49822;41.468;13.560;2023-06-05T03:57:21;19.20;95.50
63317;DHT22;49822;41.468;13.560;2023-06-05T03:59:50;19.30;95.20
63317;DHT22;49822;41.468;13.560;2023-06-05T04:02:18;19.30;95.30
63317;DHT22;49822;41.468;13.560;2023-06-05T04:04:44;19.40;95.70
63317;DHT22;49822;41.468;13.560;2023-06-05T04:07:10;19.50;95.30
63317;DHT22;49822;41.468;13.560;2023-06-05T04:09:36;19.40;95.10
63317;DHT22;49822;41.468;13.560;2023-06-05T04:12:03;19.40;95.00
63317;DHT22;49822;41.468;13.560;2023-06-05T04:14:31;19.40;95.00
63317;DHT22;49822;41.468;13.560;2023-06-05T04:16:57;19.40;95.30
63317;DHT22;49822;41.468;13.560;2023-06-05T04:19:25;19.30;95.40
63317;DHT22;49822;41.468;13.560;2023-06-05T04:22:04;19.30;95.50
63317;DHT22;49822;41.468;13.560;2023-06-05T04:24:49;19.30;95.40
63317;DHT22;49822;41.468;13.560;2023-06-05T04:27:15;19.20;95.40
63317;DHT22;49822;41.468;13.560;2023-06-05T04:29:43;19.30;95.30
63317;DHT22;49822;41.468;13.560;2023-06-05T04:32:10;19.30;95.20
63317;DHT22;49822;41.468;13.560;2023-06-05T04:34:36;19.40;95.20
63317;DHT22;49822;41.468;13.560;2023-06-05T04:37:02;19.50;95.50
63317;DHT22;49822;41.468;13.560;2023-06-05T04:39:29;19.50;95.10
63317;DHT22;49822;41.468;13.560;2023-06-05T04:41:55;19.50;95.30
63317;DHT22;49822;41.468;13.560;2023-06-05T04:44:27;19.50;95.40
63317;DHT22;49822;41.468;13.560;2023-06-05T04:46:53;19.50;95.50
63317;DHT22;49822;41.468;13.560;2023-06-05T04:49:21;19.50;95.70
63317;DHT22;49822;41.468;13.560;2023-06-05T04:51:49;19.60;95.40
63317;DHT22;49822;41.468;13.560;2023-06-05T04:54:15;19.60;95.40
63317;DHT22;49822;41.468;13.560;2023-06-05T04:56:42;19.50;95.10
63317;DHT22;49822;41.468;13.560;2023-06-05T04:59:11;19.70;94.90
63317;DHT22;49822;41.468;13.560;2023-06-05T05:01:36;19.70;94.70
63317;DHT22;49822;41.468;13.560;2023-06-05T05:04:03;19.70;94.60
63317;DHT22;49822;41.468;13.560;2023-06-05T05:06:29;19.70;95.20
63317;DHT22;49822;41.468;13.560;2023-06-05T05:08:57;19.70;95.00
63317;DHT22;49822;41.468;13.560;2023-06-05T05:11:23;19.80;94.80
63317;DHT22;49822;41.468;13.560;2023-06-05T05:13:50;19.70;94.60
63317;DHT22;49822;41.468;13.560;2023-06-05T05:16:16;19.70;94.90
63317;DHT22;49822;41.468;13.560;2023-06-05T05:18:44;19.80;94.60
63317;DHT22;49822;41.468;13.560;2023-06-05T05:21:11;19.90;94.30
63317;DHT22;49822;41.468;13.560;2023-06-05T05:23:38;20.00;94.10
63317;DHT22;49822;41.468;13.560;2023-06-05T05:26:06;19.90;94.40
63317;DHT22;49822;41.468;13.560;2023-06-05T05:28:33;20.00;94.00
63317;DHT22;49822;41.468;13.560;2023-06-05T05:31:00;20.00;93.90
63317;DHT22;49822;41.468;13.560;2023-06-05T05:33:30;20.10;93.70
63317;DHT22;49822;41.468;13.560;2023-06-05T05:35:56;20.20;93.90
63317;DHT22;49822;41.468;13.560;2023-06-05T05:38:23;20.20;94.00
63317;DHT22;49822;41.468;13.560;2023-06-05T05:40:50;20.20;93.80
63317;DHT22;49822;41.468;13.560;2023-06-05T05:43:16;20.30;93.70
63317;DHT22;49822;41.468;13.560;2023-06-05T05:45:42;20.30;93.90
63317;DHT22;49822;41.468;13.560;2023-06-05T05:48:09;20.20;93.70
63317;DHT22;49822;41.468;13.560;2023-06-05T05:50:35;20.40;93.40
63317;DHT22;49822;41.468;13.560;2023-06-05T05:53:02;20.30;93.40
63317;DHT22;49822;41.468;13.560;2023-06-05T05:55:29;20.50;93.40
63317;DHT22;49822;41.468;13.560;2023-06-05T05:57:55;20.50;93.40
63317;DHT22;49822;41.468;13.560;2023-06-05T06:00:23;20.50;92.40
63317;DHT22;49822;41.468;13.560;2023-06-05T06:02:51;20.60;92.30
63317;DHT22;49822;41.468;13.560;2023-06-05T06:05:18;20.60;92.60
63317;DHT22;49822;41.468;13.560;2023-06-05T06:07:46;20.60;92.80
63317;DHT22;49822;41.468;13.560;2023-06-05T06:10:12;20.70;92.90
63317;DHT22;49822;41.468;13.560;2023-06-05T06:12:39;20.80;92.30
63317;DHT22;49822;41.468;13.560;2023-06-05T06:15:07;21.00;91.60
63317;DHT22;49822;41.468;13.560;2023-06-05T06:17:33;21.00;91.90
63317;DHT22;49822;41.468;13.560;2023-06-05T06:19:59;21.10;91.30
63317;DHT22;49822;41.468;13.560;2023-06-05T06:22:26;21.00;90.90
63317;DHT22;49822;41.468;13.560;2023-06-05T06:24:52;21.00;90.60
63317;DHT22;49822;41.468;13.560;2023-06-05T06:27:19;21.20;90.50
63317;DHT22;49822;41.468;13.560;2023-06-05T06:29:50;21.10;90.70
63317;DHT22;49822;41.468;13.560;2023-06-05T06:32:20;21.10;90.60
63317;DHT22;49822;41.468;13.560;2023-06-05T06:34:46;21.10;89.90
63317;DHT22;49822;41.468;13.560;2023-06-05T06:37:15;21.20;90.20
63317;DHT22;49822;41.468;13.560;2023-06-05T06:39:42;21.30;89.70
63317;DHT22;49822;41.468;13.560;2023-06-05T06:42:09;21.50;90.30
63317;DHT22;49822;41.468;13.560;2023-06-05T06:44:38;21.70;88.90
63317;DHT22;49822;41.468;13.560;2023-06-05T06:47:05;21.80;88.10
63317;DHT22;49822;41.468;13.560;2023-06-05T06:49:32;21.90;87.30
63317;DHT22;49822;41.468;13.560;2023-06-05T06:51:59;21.90;87.70
63317;DHT22;49822;41.468;13.560;2023-06-05T06:54:25;22.00;87.70
63317;DHT22;49822;41.468;13.560;2023-06-05T06:56:55;22.00;87.70
63317;DHT22;49822;41.468;13.560;2023-06-05T06:59:21;22.10;88.20
63317;DHT22;49822;41.468;13.560;2023-06-05T07:02:07;22.20;88.50
63317;DHT22;49822;41.468;13.560;2023-06-05T07:04:33;22.40;87.50
63317;DHT22;49822;41.468;13.560;2023-06-05T07:07:00;22.60;87.50
63317;DHT22;49822;41.468;13.560;2023-06-05T07:09:26;22.70;86.60
63317;DHT22;49822;41.468;13.560;2023-06-05T07:11:53;23.00;86.50
63317;DHT22;49822;41.468;13.560;2023-06-05T07:14:20;23.10;85.80
63317;DHT22;49822;41.468;13.560;2023-06-05T07:16:46;23.10;85.50
63317;DHT22;49822;41.468;13.560;2023-06-05T07:19:15;23.20;85.30
63317;DHT22;49822;41.468;13.560;2023-06-05T07:21:41;23.20;84.50
63317;DHT22;49822;41.468;13.560;2023-06-05T07:24:17;23.10;83.80
63317;DHT22;49822;41.468;13.560;2023-06-05T07:26:46;23.20;83.90
63317;DHT22;49822;41.468;13.560;2023-06-05T07:29:12;23.20;84.50
63317;DHT22;49822;41.468;13.560;2023-06-05T07:31:38;23.30;84.70
63317;DHT22;49822;41.468;13.560;2023-06-05T07:34:04;23.20;85.00
63317;DHT22;49822;41.468;13.560;2023-06-05T07:36:31;23.40;84.90
63317;DHT22;49822;41.468;13.560;2023-06-05T07:39:01;23.60;85.00
63317;DHT22;49822;41.468;13.560;2023-06-05T07:41:27;23.90;83.50
63317;DHT22;49822;41.468;13.560;2023-06-05T07:43:53;24.00;81.80
63317;DHT22;49822;41.468;13.560;2023-06-05T07:46:19;24.10;82.20
63317;DHT22;49822;41.468;13.560;2023-06-05T07:48:45;24.10;82.00
63317;DHT22;49822;41.468;13.560;2023-06-05T07:51:11;24.20;80.90
63317;DHT22;49822;41.468;13.560;2023-06-05T07:53:37;24.10;81.10
63317;DHT22;49822;41.468;13.560;2023-06-05T07:56:03;24.30;82.50
63317;DHT22;49822;41.468;13.560;2023-06-05T07:58:29;24.50;82.10
63317;DHT22;49822;41.468;13.560;2023-06-05T08:00:55;24.70;80.20
63317;DHT22;49822;41.468;13.560;2023-06-05T08:03:23;24.90;81.20
63317;DHT22;49822;41.468;13.560;2023-06-05T08:05:49;25.00;80.30
63317;DHT22;49822;41.468;13.560;2023-06-05T08:08:16;25.00;80.90
63317;DHT22;49822;41.468;13.560;2023-06-05T08:10:43;25.20;81.00
63317;DHT22;49822;41.468;13.560;2023-06-05T08:13:10;25.40;81.10
63317;DHT22;49822;41.468;13.560;2023-06-05T08:15:37;25.30;80.60
63317;DHT22;49822;41.468;13.560;2023-06-05T08:18:04;25.20;81.40
63317;DHT22;49822;41.468;13.560;2023-06-05T08:20:30;25.00;79.80
63317;DHT22;49822;41.468;13.560;2023-06-05T08:22:56;24.80;79.80
63317;DHT22;49822;41.468;13.560;2023-06-05T08:25:26;24.60;81.10
63317;DHT22;49822;41.468;13.560;2023-06-05T08:27:53;24.70;82.20
63317;DHT22;49822;41.468;13.560;2023-06-05T08:30:21;24.60;82.30
63317;DHT22;49822;41.468;13.560;2023-06-05T08:32:49;24.80;81.40
63317;DHT22;49822;41.468;13.560;2023-06-05T08:35:15;25.00;81.70
63317;DHT22;49822;41.468;13.560;2023-06-05T08:37:42;24.90;80.50
63317;DHT22;49822;41.468;13.560;2023-06-05T08:40:08;25.00;79.00
63317;DHT22;49822;41.468;13.560;2023-06-05T08:42:37;25.20;79.50
63317;DHT22;49822;41.468;13.560;2023-06-05T08:45:08;25.40;79.50
63317;DHT22;49822;41.468;13.560;2023-06-05T08:47:38;25.50;78.90
63317;DHT22;49822;41.468;13.560;2023-06-05T08:50:07;25.70;78.70
63317;DHT22;49822;41.468;13.560;2023-06-05T08:52:37;25.70;77.80
63317;DHT22;49822;41.468;13.560;2023-06-05T08:55:05;25.90;77.80
63317;DHT22;49822;41.468;13.560;2023-06-05T08:57:35;25.70;76.40
63317;DHT22;49822;41.468;13.560;2023-06-05T09:00:05;25.80;77.50
63317;DHT22;49822;41.468;13.560;2023-06-05T09:02:41;25.70;76.60
63317;DHT22;49822;41.468;13.560;2023-06-05T09:05:15;25.70;78.00
63317;DHT22;49822;41.468;13.560;2023-06-05T09:07:42;25.70;77.20
63317;DHT22;49822;41.468;13.560;2023-06-05T09:10:22;25.70;75.40
63317;DHT22;49822;41.468;13.560;2023-06-05T09:12:59;25.70;74.70
63317;DHT22;49822;41.468;13.560;2023-06-05T09:15:31;25.50;76.40
63317;DHT22;49822;41.468;13.560;2023-06-05T09:18:10;25.70;75.00
63317;DHT22;49822;41.468;13.560;2023-06-05T09:20:43;25.80;72.30
63317;DHT22;49822;41.468;13.560;2023-06-05T09:23:28;25.80;71.70
63317;DHT22;49822;41.468;13.560;2023-06-05T09:25:59;25.60;74.10
63317;DHT22;49822;41.468;13.560;2023-06-05T09:28:26;25.60;73.90
63317;DHT22;49822;41.468;13.560;2023-06-05T09:31:02;25.70;75.30
63317;DHT22;49822;41.468;13.560;2023-06-05T09:33:30;25.60;76.60
63317;DHT22;49822;41.468;13.560;2023-06-05T09:36:11;25.80;77.10
63317;DHT22;49822;41.468;13.560;2023-06-05T09:38:39;26.00;75.50
63317;DHT22;49822;41.468;13.560;2023-06-05T09:41:13;26.10;73.10
63317;DHT22;49822;41.468;13.560;2023-06-05T09:43:44;26.00;73.80
63317;DHT22;49822;41.468;13.560;2023-06-05T09:46:16;25.80;75.10
63317;DHT22;49822;41.468;13.560;2023-06-05T09:48:45;25.70;76.00
63317;DHT22;49822;41.468;13.560;2023-06-05T09:51:16;25.50;74.20
63317;DHT22;49822;41.468;13.560;2023-06-05T09:53:50;25.10;74.40
63317;DHT22;49822;41.468;13.560;2023-06-05T09:56:21;24.80;75.90
63317;DHT22;49822;41.468;13.560;2023-06-05T09:58:49;24.80;75.80
63317;DHT22;49822;41.468;13.560;2023-06-05T10:01:17;24.50;76.50
63317;DHT22;49822;41.468;13.560;2023-06-05T10:03:50;24.00;77.00
63317;DHT22;49822;41.468;13.560;2023-06-05T10:06:17;23.60;78.60
63317;DHT22;49822;41.468;13.560;2023-06-05T10:08:52;23.50;80.70
63317;DHT22;49822;41.468;13.560;2023-06-05T10:11:22;23.50;81.50
63317;DHT22;49822;41.468;13.560;2023-06-05T10:13:50;23.30;82.10
63317;DHT22;49822;41.468;13.560;2023-06-05T10:16:19;23.20;81.80
63317;DHT22;49822;41.468;13.560;2023-06-05T10:18:49;23.10;82.10
63317;DHT22;49822;41.468;13.560;2023-06-05T10:21:16;22.90;82.70
63317;DHT22;49822;41.468;13.560;2023-06-05T10:23:47;22.90;82.40
63317;DHT22;49822;41.468;13.560;2023-06-05T10:38:23;23.50;80.70
63317;DHT22;49822;41.468;13.560;2023-06-05T10:41:01;23.70;80.50
63317;DHT22;49822;41.468;13.560;2023-06-05T10:43:48;24.10;81.50
63317;DHT22;49822;41.468;13.560;2023-06-05T10:51:47;24.80;76.60
63317;DHT22;49822;41.468;13.560;2023-06-05T10:59:20;24.50;78.50
63317;DHT22;49822;41.468;13.560;2023-06-05T11:07:19;23.30;79.70
63317;DHT22;49822;41.468;13.560;2023-06-05T11:15:05;22.70;81.70
63317;DHT22;49822;41.468;13.560;2023-06-05T11:17:45;22.60;81.80
63317;DHT22;49822;41.468;13.560;2023-06-05T11:27:52;22.20;82.40
63317;DHT22;49822;41.468;13.560;2023-06-05T11:30:21;22.10;82.70
63317;DHT22;49822;41.468;13.560;2023-06-05T11:32:51;22.30;82.60
63317;DHT22;49822;41.468;13.560;2023-06-05T11:35:26;22.20;82.40
63317;DHT22;49822;41.468;13.560;2023-06-05T11:38:14;22.20;82.40
63317;DHT22;49822;41.468;13.560;2023-06-05T11:40:41;22.20;82.10
63317;DHT22;49822;41.468;13.560;2023-06-05T11:43:09;22.30;81.80
63317;DHT22;49822;41.468;13.560;2023-06-05T11:45:41;22.40;82.60
63317;DHT22;49822;41.468;13.560;2023-06-05T11:48:12;22.40;82.30
63317;DHT22;49822;41.468;13.560;2023-06-05T11:50:55;22.70;81.90
63317;DHT22;49822;41.468;13.560;2023-06-05T11:53:21;23.20;81.80
63317;DHT22;49822;41.468;13.560;2023-06-05T11:55:48;23.40;80.90
63317;DHT22;49822;41.468;13.560;2023-06-05T11:58:27;23.40;80.70
63317;DHT22;49822;41.468;13.560;2023-06-05T12:03:44;23.00;81.50
63317;DHT22;49822;41.468;13.560;2023-06-05T12:06:12;23.20;80.60
63317;DHT22;49822;41.468;13.560;2023-06-05T12:08:40;23.30;79.80
63317;DHT22;49822;41.468;13.560;2023-06-05T12:11:23;23.40;79.60
63317;DHT22;49822;41.468;13.560;2023-06-05T12:13:51;23.40;80.50
63317;DHT22;49822;41.468;13.560;2023-06-05T12:16:20;23.40;79.90
63317;DHT22;49822;41.468;13.560;2023-06-05T12:18:46;23.30;79.00
63317;DHT22;49822;41.468;13.560;2023-06-05T12:21:22;23.40;79.60
63317;DHT22;49822;41.468;13.560;2023-06-05T12:23:49;23.50;79.40
63317;DHT22;49822;41.468;13.560;2023-06-05T12:26:15;23.70;78.40
63317;DHT22;49822;41.468;13.560;2023-06-05T12:28:44;23.60;78.80
63317;DHT22;49822;41.468;13.560;2023-06-05T12:31:11;23.70;77.60
63317;DHT22;49822;41.468;13.560;2023-06-05T12:33:55;23.70;76.90
63317;DHT22;49822;41.468;13.560;2023-06-05T12:36:21;23.70;77.70
63317;DHT22;49822;41.468;13.560;2023-06-05T12:38:47;23.40;78.20
63317;DHT22;49822;41.468;13.560;2023-06-05T12:41:13;23.40;78.30
63317;DHT22;49822;41.468;13.560;2023-06-05T12:43:39;23.30;77.90
63317;DHT22;49822;41.468;13.560;2023-06-05T12:46:06;23.60;78.60
63317;DHT22;49822;41.468;13.560;2023-06-05T12:48:36;23.60;79.10
63317;DHT22;49822;41.468;13.560;2023-06-05T12:51:02;23.30;79.00
63317;DHT22;49822;41.468;13.560;2023-06-05T12:53:29;23.40;79.30
63317;DHT22;49822;41.468;13.560;2023-06-05T12:55:56;23.20;80.00
63317;DHT22;49822;41.468;13.560;2023-06-05T12:58:22;23.20;80.20
63317;DHT22;49822;41.468;13.560;2023-06-05T13:00:49;23.10;81.40
63317;DHT22;49822;41.468;13.560;2023-06-05T13:03:18;23.10;80.50
63317;DHT22;49822;41.468;13.560;2023-06-05T13:05:44;23.10;81.00
63317;DHT22;49822;41.468;13.560;2023-06-05T13:08:10;23.30;79.90
63317;DHT22;49822;41.468;13.560;2023-06-05T13:10:36;23.00;81.20
63317;DHT22;49822;41.468;13.560;2023-06-05T13:13:02;22.90;82.00
63317;DHT22;49822;41.468;13.560;2023-06-05T13:15:29;23.00;83.10
63317;DHT22;49822;41.468;13.560;2023-06-05T13:17:57;23.00;81.40
63317;DHT22;49822;41.468;13.560;2023-06-05T13:20:23;23.10;81.00
63317;DHT22;49822;41.468;13.560;2023-06-05T13:22:50;23.00;81.10
63317;DHT22;49822;41.468;13.560;2023-06-05T13:25:16;23.20;81.80
63317;DHT22;49822;41.468;13.560;2023-06-05T13:27:44;23.60;80.30
63317;DHT22;49822;41.468;13.560;2023-06-05T13:30:11;23.80;78.60
63317;DHT22;49822;41.468;13.560;2023-06-05T13:32:37;24.20;78.40
63317;DHT22;49822;41.468;13.560;2023-06-05T13:35:07;24.50;77.80
63317;DHT22;49822;41.468;13.560;2023-06-05T13:37:34;24.90;77.60
63317;DHT22;49822;41.468;13.560;2023-06-05T13:40:00;25.40;76.90
63317;DHT22;49822;41.468;13.560;2023-06-05T13:42:26;25.40;74.10
63317;DHT22;49822;41.468;13.560;2023-06-05T13:44:52;25.50;75.40
63317;DHT22;49822;41.468;13.560;2023-06-05T13:47:18;25.70;75.30
63317;DHT22;49822;41.468;13.560;2023-06-05T13:49:44;25.80;75.60
63317;DHT22;49822;41.468;13.560;2023-06-05T13:52:10;25.70;74.20
63317;DHT22;49822;41.468;13.560;2023-06-05T13:54:36;25.60;74.20
63317;DHT22;49822;41.468;13.560;2023-06-05T13:57:02;25.20;75.30
63317;DHT22;49822;41.468;13.560;2023-06-05T13:59:28;24.90;74.90
63317;DHT22;49822;41.468;13.560;2023-06-05T14:01:54;25.00;74.80
63317;DHT22;49822;41.468;13.560;2023-06-05T14:04:20;25.10;75.00
63317;DHT22;49822;41.468;13.560;2023-06-05T14:06:46;25.10;75.90
63317;DHT22;49822;41.468;13.560;2023-06-05T14:09:12;25.00;75.30
63317;DHT22;49822;41.468;13.560;2023-06-05T14:11:38;25.00;75.30
63317;DHT22;49822;41.468;13.560;2023-06-05T14:14:10;25.10;74.50
63317;DHT22;49822;41.468;13.560;2023-06-05T14:16:37;25.50;73.00
63317;DHT22;49822;41.468;13.560;2023-06-05T14:19:03;25.80;73.60
63317;DHT22;49822;41.468;13.560;2023-06-05T14:21:29;25.90;72.70
63317;DHT22;49822;41.468;13.560;2023-06-05T14:23:55;25.60;73.70
63317;DHT22;49822;41.468;13.560;2023-06-05T14:26:21;25.50;72.90
63317;DHT22;49822;41.468;13.560;2023-06-05T14:28:47;25.10;73.00
63317;DHT22;49822;41.468;13.560;2023-06-05T14:31:13;25.20;74.60
63317;DHT22;49822;41.468;13.560;2023-06-05T14:33:39;25.50;73.80
63317;DHT22;49822;41.468;13.560;2023-06-05T14:36:06;25.40;72.60
63317;DHT22;49822;41.468;13.560;2023-06-05T14:38:32;25.40;74.10
63317;DHT22;49822;41.468;13.560;2023-06-05T14:40:58;25.60;73.30
63317;DHT22;49822;41.468;13.560;2023-06-05T14:43:24;25.10;72.70
63317;DHT22;49822;41.468;13.560;2023-06-05T14:45:52;25.30;73.40
63317;DHT22;49822;41.468;13.560;2023-06-05T14:48:18;24.60;73.00
63317;DHT22;49822;41.468;13.560;2023-06-05T14:50:44;24.80;74.60
63317;DHT22;49822;41.468;13.560;2023-06-05T14:53:12;24.90;73.10
63317;DHT22;49822;41.468;13.560;2023-06-05T14:55:38;24.60;73.00
63317;DHT22;49822;41.468;13.560;2023-06-05T14:58:04;24.60;74.00
63317;DHT22;49822;41.468;13.560;2023-06-05T15:00:34;24.80;74.50
63317;DHT22;49822;41.468;13.560;2023-06-05T15:03:01;25.20;75.20
63317;DHT22;49822;41.468;13.560;2023-06-05T15:05:27;25.30;73.90
63317;DHT22;49822;41.468;13.560;2023-06-05T15:07:53;25.60;74.30
63317;DHT22;49822;41.468;13.560;2023-06-05T15:10:19;25.70;71.90
63317;DHT22;49822;41.468;13.560;2023-06-05T15:12:45;25.60;72.80
63317;DHT22;49822;41.468;13.560;2023-06-05T15:15:11;25.60;72.70
63317;DHT22;49822;41.468;13.560;2023-06-05T15:17:38;25.50;72.00
63317;DHT22;49822;41.468;13.560;2023-06-05T15:20:05;25.30;72.90
63317;DHT22;49822;41.468;13.560;2023-06-05T15:22:32;25.00;73.20
63317;DHT22;49822;41.468;13.560;2023-06-05T15:24:59;25.00;72.90
63317;DHT22;49822;41.468;13.560;2023-06-05T15:27:25;25.10;71.80
63317;DHT22;49822;41.468;13.560;2023-06-05T15:29:51;25.00;72.40
63317;DHT22;49822;41.468;13.560;2023-06-05T15:32:17;24.70;73.20
63317;DHT22;49822;41.468;13.560;2023-06-05T15:34:43;24.50;73.50
63317;DHT22;49822;41.468;13.560;2023-06-05T15:37:09;24.60;73.80
63317;DHT22;49822;41.468;13.560;2023-06-05T15:39:35;24.50;74.10
63317;DHT22;49822;41.468;13.560;2023-06-05T15:42:02;24.50;74.50
63317;DHT22;49822;41.468;13.560;2023-06-05T15:44:28;24.40;74.10
63317;DHT22;49822;41.468;13.560;2023-06-05T15:46:54;24.20;75.10
63317;DHT22;49822;41.468;13.560;2023-06-05T15:49:22;24.00;75.00
63317;DHT22;49822;41.468;13.560;2023-06-05T15:51:48;24.10;75.40
63317;DHT22;49822;41.468;13.560;2023-06-05T15:54:14;24.00;74.30
63317;DHT22;49822;41.468;13.560;2023-06-05T15:56:40;24.10;75.30
63317;DHT22;49822;41.468;13.560;2023-06-05T15:59:06;24.10;74.80
63317;DHT22;49822;41.468;13.560;2023-06-05T16:01:43;24.00;74.00
63317;DHT22;49822;41.468;13.560;2023-06-05T16:04:14;23.90;74.40
63317;DHT22;49822;41.468;13.560;2023-06-05T16:06:43;23.80;74.00